»·PEaware :: AWE180 KLAX-KNYL

AWE180 :: KLAX-KNYL

FLIGHT INFORMATION

Flight Status: Arrived
Operator:
US Airways
More flights by this operator :: More flights under this callsign
Pilot: Etienne B. (28927)
Aircraft: AIRBUS A320
(A320)
More flights by this aircraft type
Origin: KLAX Los Angeles Intl
United States
Destination: KNYL Yuma MCAS/Yuma Intl
United States
More flights between these airports :: More routes between these airports
Route: LAXX1 OCN TCATE IPL V458 BZA
File this flight plan on PilotEdge
Remarks: RMK / SIMBRIEF
Altitude:
(Current/Filed)
29,000ft
Speed:
(Current/Filed)
461kts
Departed: 06-May-20 03:56 PM
Arrived: 06-May-20 04:42 PM
Distance/Time
Traveled:
205nm/0:46
Distance/Time
To Go:
Arrived

Flight Plot

Page will automatically refresh every two minutes.

Flight plan parsing failed; only flown route is shown


Map Options




Map Legend


Flown Route
Filed Route
Departure Airport
Arrival Airport
Navaid (VOR, NDB)
Fix

Horizontal Profiles

Position Reports

Time Latitude Longitude Heading Altitude Ground
Speed
06-May-20 15:37 33.941006 -118.401399 266 125ft 0kts
06-May-20 15:38 33.941006 -118.401399 266 125ft 0kts
06-May-20 15:39 33.941006 -118.401399 266 125ft 0kts
06-May-20 15:40 33.941006 -118.401399 266 125ft 0kts
06-May-20 15:41 33.941006 -118.401399 266 125ft 0kts
06-May-20 15:42 33.941006 -118.401399 266 125ft 0kts
06-May-20 15:43 33.941006 -118.401399 266 125ft 0kts
06-May-20 15:44 33.941006 -118.401399 266 125ft 0kts
06-May-20 15:45 33.941006 -118.401399 266 125ft 0kts
06-May-20 15:46 33.941006 -118.401398 266 125ft 0kts
06-May-20 15:47 33.941342 -118.400870 197 124ft 2kts
06-May-20 15:48 33.941592 -118.400850 169 124ft 0kts
06-May-20 15:49 33.941351 -118.400800 173 124ft 3kts
06-May-20 15:50 33.940002 -118.400598 169 123ft 5kts
06-May-20 15:51 33.939868 -118.397305 83 118ft 24kts
06-May-20 15:52 33.940652 -118.388995 83 108ft 27kts
06-May-20 15:54 33.941042 -118.383603 134 106ft 3kts
06-May-20 15:55 33.940758 -118.380662 84 104ft 15kts
06-May-20 15:56 33.939509 -118.383404 262 105ft 70kts
06-May-20 15:57 33.933565 -118.434209 260 1508ft 187kts
06-May-20 15:58 33.906149 -118.492034 235 3826ft 230kts
06-May-20 15:59 33.865733 -118.559623 233 6367ft 265kts
06-May-20 16:00 33.797163 -118.569931 165 9172ft 285kts
06-May-20 16:01 33.721952 -118.535749 168 11809ft 301kts
06-May-20 16:02 33.665116 -118.465004 107 13725ft 339kts
06-May-20 16:03 33.638080 -118.348805 106 14886ft 385kts
06-May-20 16:04 33.608063 -118.222278 107 16611ft 401kts
06-May-20 16:05 33.576679 -118.091693 107 18255ft 413kts
06-May-20 16:06 33.544239 -117.957650 107 19774ft 424kts
06-May-20 16:07 33.510737 -117.819765 107 21126ft 436kts
06-May-20 16:08 33.467575 -117.683835 133 22437ft 437kts
06-May-20 16:09 33.381110 -117.581509 138 23698ft 442kts
06-May-20 16:10 33.292470 -117.478091 139 24820ft 449kts
06-May-20 16:10 33.224279 -117.382495 121 25668ft 464kts
06-May-20 16:12 33.151819 -117.223931 122 26793ft 471kts
06-May-20 16:13 33.088275 -117.085841 122 27700ft 476kts
06-May-20 16:13 33.035080 -116.970645 122 28663ft 474kts
06-May-20 16:14 32.971943 -116.834395 122 29005ft 467kts
06-May-20 16:16 32.899168 -116.678002 122 28652ft 451kts
06-May-20 16:16 32.850156 -116.572946 122 27871ft 421kts
06-May-20 16:17 32.805957 -116.450097 96 26919ft 402kts
06-May-20 16:18 32.798687 -116.320293 96 25969ft 390kts
06-May-20 16:19 32.791246 -116.192730 96 24750ft 383kts
06-May-20 16:20 32.783767 -116.067494 96 23872ft 381kts
06-May-20 16:21 32.776154 -115.942119 96 23868ft 378kts
06-May-20 16:22 32.768474 -115.817645 96 23868ft 378kts
06-May-20 16:23 32.760652 -115.692873 96 23868ft 378kts
06-May-20 16:24 32.752584 -115.566319 96 21434ft 385kts
06-May-20 16:25 32.750556 -115.442455 89 18528ft 369kts
06-May-20 16:26 32.753390 -115.323753 90 15675ft 352kts
06-May-20 16:27 32.755977 -115.210491 89 12856ft 337kts
06-May-20 16:28 32.758371 -115.101610 89 10258ft 318kts
06-May-20 16:29 32.760513 -115.000500 89 9535ft 304kts
06-May-20 16:30 32.778168 -114.905919 71 8345ft 274kts
06-May-20 16:31 32.802837 -114.821731 71 7201ft 266kts
06-May-20 16:32 32.817735 -114.739132 100 5693ft 276kts
06-May-20 16:33 32.826021 -114.653044 71 5051ft 260kts
06-May-20 16:34 32.849006 -114.571748 71 4306ft 258kts
06-May-20 16:35 32.859518 -114.489800 121 3896ft 255kts
06-May-20 16:36 32.811354 -114.433042 176 3065ft 234kts
06-May-20 16:37 32.771015 -114.475027 223 2856ft 176kts
06-May-20 16:38 32.738373 -114.513028 224 2141ft 154kts
06-May-20 16:39 32.706515 -114.549212 225 1451ft 161kts
06-May-20 16:40 32.674704 -114.585790 224 564ft 153kts
06-May-20 16:41 32.653034 -114.610908 223 193ft 36kts
06-May-20 16:42 32.651563 -114.613837 255 193ft 0kts
06-May-20 16:43 32.652040 -114.617328 356 193ft 10kts

Navigation Log

Ident Type
Flight plan parsing failed, navigation log unavailable